createdAt,value
2018-08-06T00:01:30.841Z,1.00
2018-08-06T00:04:06.968Z,1.00
2018-08-06T00:06:43.978Z,1.00
2018-08-06T00:09:20.046Z,1.00
2018-08-06T00:11:56.076Z,1.00
2018-08-06T00:14:32.144Z,1.00
2018-08-06T00:17:08.579Z,1.00
2018-08-06T00:19:44.819Z,1.00
2018-08-06T00:22:21.025Z,1.00
2018-08-06T00:24:57.200Z,1.00
2018-08-06T00:27:33.478Z,1.00
2018-08-06T00:30:13.830Z,19.10
2018-08-06T00:32:50.700Z,38.80
2018-08-06T00:35:26.948Z,82.10
2018-08-06T00:38:03.136Z,88.30
2018-08-06T00:40:39.388Z,99.90
2018-08-06T00:43:15.449Z,99.90
2018-08-06T00:45:51.693Z,99.90
2018-08-06T00:48:28.038Z,99.90
2018-08-06T00:51:04.040Z,99.90
2018-08-06T00:53:40.267Z,99.90
2018-08-06T00:56:16.355Z,99.90
2018-08-06T00:58:52.814Z,99.90
2018-08-06T01:01:29.008Z,99.90
2018-08-06T01:04:05.059Z,99.90
2018-08-06T01:06:41.166Z,99.90
2018-08-06T01:09:17.365Z,99.90
2018-08-06T01:11:53.365Z,99.90
2018-08-06T01:14:29.478Z,99.90
2018-08-06T01:17:05.695Z,99.90
2018-08-06T01:19:41.848Z,99.90
2018-08-06T01:22:17.940Z,99.90
2018-08-06T01:24:54.481Z,99.90
2018-08-06T01:27:30.569Z,99.90
2018-08-06T01:30:08.035Z,99.90
2018-08-06T01:35:20.067Z,99.90
2018-08-06T01:37:56.208Z,99.90
2018-08-06T01:40:32.217Z,99.90
2018-08-06T01:43:08.297Z,99.90
2018-08-06T01:45:44.600Z,99.90
2018-08-06T01:48:20.749Z,99.90
2018-08-06T01:50:56.865Z,1.00
2018-08-06T01:53:32.919Z,1.00
2018-08-06T01:56:09.120Z,1.00
2018-08-06T01:58:45.437Z,1.00
2018-08-06T02:01:21.636Z,1.00
2018-08-06T02:03:57.748Z,1.00
2018-08-06T02:06:33.785Z,1.00
2018-08-06T02:09:09.946Z,1.00
2018-08-06T02:11:46.145Z,1.00
2018-08-06T02:14:22.454Z,1.00
2018-08-06T02:16:58.489Z,1.00
2018-08-06T02:19:34.717Z,1.00
2018-08-06T02:22:11.136Z,1.00
2018-08-06T02:24:47.346Z,1.00
2018-08-06T02:27:23.459Z,1.00
2018-08-06T02:29:59.555Z,1.00
2018-08-06T02:32:35.756Z,1.00
2018-08-06T02:35:13.536Z,1.00
2018-08-06T02:37:49.518Z,1.00
2018-08-06T02:40:25.775Z,1.00
2018-08-06T02:43:01.874Z,1.00
2018-08-06T02:45:37.818Z,1.00
2018-08-06T02:48:14.104Z,1.00
2018-08-06T02:50:50.326Z,71.80
2018-08-06T02:53:26.645Z,90.40
2018-08-06T02:56:02.938Z,94.10
2018-08-06T02:58:39.066Z,58.40
2018-08-06T03:01:15.251Z,83.00
2018-08-06T03:03:51.528Z,59.20
2018-08-06T03:06:27.601Z,99.90
2018-08-06T03:09:04.028Z,99.90
2018-08-06T03:11:40.455Z,99.90
2018-08-06T03:14:16.607Z,99.90
2018-08-06T03:16:52.740Z,99.90
2018-08-06T03:19:29.016Z,99.90
2018-08-06T03:22:05.168Z,99.90
2018-08-06T03:24:41.358Z,99.90
2018-08-06T03:27:17.475Z,99.90
2018-08-06T03:29:53.777Z,99.90
2018-08-06T03:32:30.115Z,99.90
2018-08-06T03:35:07.445Z,99.90
2018-08-06T03:37:43.596Z,99.90
2018-08-06T03:40:19.864Z,99.90
2018-08-06T03:42:55.935Z,99.90
2018-08-06T03:45:31.945Z,90.90
2018-08-06T03:48:08.136Z,1.00
2018-08-06T03:50:44.247Z,91.40
2018-08-06T03:53:20.352Z,70.40
2018-08-06T03:55:56.539Z,99.90
2018-08-06T03:58:32.764Z,99.90
2018-08-06T04:01:09.466Z,99.90
2018-08-06T04:03:45.588Z,99.90
2018-08-06T04:06:21.574Z,99.90
2018-08-06T04:08:57.848Z,99.90
2018-08-06T04:11:33.816Z,99.90
2018-08-06T04:14:09.915Z,99.90
2018-08-06T04:16:46.350Z,99.90
2018-08-06T04:19:22.289Z,99.90
2018-08-06T04:21:58.409Z,99.90
2018-08-06T04:24:34.485Z,99.90
2018-08-06T04:27:10.656Z,1.00
2018-08-06T04:29:46.955Z,1.00
2018-08-06T04:32:23.122Z,1.00
2018-08-06T04:34:59.430Z,1.00
2018-08-06T04:37:35.718Z,1.00
2018-08-06T04:40:12.739Z,1.00
2018-08-06T04:42:48.826Z,1.00
2018-08-06T04:45:25.032Z,1.00
2018-08-06T04:48:01.288Z,1.00
2018-08-06T04:50:37.458Z,1.00
2018-08-06T04:53:13.731Z,1.00
2018-08-06T04:55:49.828Z,1.00
2018-08-06T04:58:25.990Z,1.00
2018-08-06T05:01:02.156Z,1.00
2018-08-06T05:03:38.228Z,1.00
2018-08-06T05:06:14.329Z,1.00
2018-08-06T05:08:50.240Z,1.00
2018-08-06T05:11:26.477Z,1.00
2018-08-06T05:14:02.819Z,1.00
2018-08-06T05:16:38.865Z,1.00
2018-08-06T05:19:15.058Z,99.90
2018-08-06T05:21:51.071Z,99.90
2018-08-06T05:24:27.328Z,99.90
2018-08-06T05:27:03.394Z,99.90
2018-08-06T05:29:39.729Z,99.90
2018-08-06T05:32:16.006Z,99.90
2018-08-06T05:34:51.973Z,99.90
2018-08-06T05:37:28.125Z,99.90
2018-08-06T05:40:04.538Z,99.90
2018-08-06T05:42:40.884Z,99.90
2018-08-06T05:45:17.056Z,99.90
2018-08-06T05:47:53.068Z,71.90
2018-08-06T05:50:29.191Z,1.00
2018-08-06T05:53:05.294Z,1.00
2018-08-06T05:55:41.135Z,1.00
2018-08-06T05:58:17.290Z,1.00
2018-08-06T06:00:53.618Z,99.90
2018-08-06T06:03:29.818Z,99.90
2018-08-06T06:06:07.077Z,99.90
2018-08-06T06:08:43.360Z,99.90
2018-08-06T06:11:19.367Z,99.90
2018-08-06T06:13:55.437Z,99.90
2018-08-06T06:16:31.616Z,99.90
2018-08-06T06:19:07.713Z,99.90
2018-08-06T06:21:43.704Z,99.90
2018-08-06T06:24:19.849Z,99.90
2018-08-06T06:26:55.888Z,99.90
2018-08-06T06:29:31.915Z,99.90
2018-08-06T06:32:08.053Z,99.90
2018-08-06T06:34:44.108Z,99.90
2018-08-06T06:37:20.207Z,99.90
2018-08-06T06:39:56.671Z,99.90
2018-08-06T06:42:32.974Z,99.90
2018-08-06T06:45:10.048Z,99.90
2018-08-06T06:47:46.155Z,99.90
2018-08-06T06:50:22.398Z,99.90
2018-08-06T06:52:58.688Z,99.90
2018-08-06T06:55:35.048Z,99.90
2018-08-06T06:58:11.125Z,99.90
2018-08-06T07:00:47.065Z,99.90
2018-08-06T07:03:23.347Z,99.90
2018-08-06T07:05:59.524Z,99.90
2018-08-06T07:08:35.611Z,99.90
2018-08-06T07:11:11.769Z,99.90
2018-08-06T07:13:47.974Z,99.90
2018-08-06T07:16:24.315Z,99.90
2018-08-06T07:19:00.629Z,99.90
2018-08-06T07:21:36.725Z,99.90
2018-08-06T07:24:12.634Z,99.90
2018-08-06T07:26:48.832Z,99.90
2018-08-06T07:29:25.018Z,99.90
2018-08-06T07:32:01.249Z,99.90
2018-08-06T07:34:37.446Z,99.90
2018-08-06T07:37:13.479Z,99.90
2018-08-06T07:39:49.776Z,99.90
2018-08-06T07:42:26.069Z,99.90
2018-08-06T07:45:01.945Z,99.90
2018-08-06T07:50:15.487Z,99.90
2018-08-06T07:52:51.416Z,99.90
2018-08-06T07:58:03.477Z,99.90
2018-08-06T08:00:39.807Z,99.90
2018-08-06T08:03:16.233Z,99.90
2018-08-06T08:05:52.406Z,99.90
2018-08-06T08:08:28.375Z,99.90
2018-08-06T08:11:04.535Z,99.90
2018-08-06T08:13:40.684Z,99.90
2018-08-06T08:16:16.777Z,99.90
2018-08-06T08:18:52.968Z,99.90
2018-08-06T08:21:29.249Z,99.90
2018-08-06T08:24:05.237Z,99.90
2018-08-06T08:26:41.624Z,99.90
2018-08-06T08:29:17.744Z,99.90
2018-08-06T08:31:53.918Z,99.90
2018-08-06T08:34:30.038Z,99.90
2018-08-06T08:37:06.197Z,99.90
2018-08-06T08:39:42.300Z,99.90
2018-08-06T08:42:18.457Z,99.90
2018-08-06T08:44:54.480Z,99.90
2018-08-06T08:47:30.528Z,99.90
2018-08-06T08:50:08.592Z,99.90
2018-08-06T08:55:21.116Z,99.90
2018-08-06T08:57:57.482Z,99.90
2018-08-06T09:00:33.708Z,99.90
2018-08-06T09:03:09.665Z,99.90
2018-08-06T09:05:45.728Z,99.90
2018-08-06T09:08:21.877Z,99.90
2018-08-06T09:10:57.974Z,99.90
2018-08-06T09:13:34.039Z,99.90
2018-08-06T09:16:10.275Z,99.90
2018-08-06T09:18:46.249Z,99.90
2018-08-06T09:21:22.779Z,99.90
2018-08-06T09:23:59.093Z,99.90
2018-08-06T09:26:35.336Z,99.90
2018-08-06T09:29:11.427Z,99.90
2018-08-06T09:31:47.708Z,99.90
2018-08-06T09:34:24.058Z,99.90
2018-08-06T09:37:00.147Z,99.90
2018-08-06T09:39:36.346Z,99.90
2018-08-06T09:42:12.614Z,99.90
2018-08-06T09:44:48.571Z,99.90
2018-08-06T09:50:00.295Z,99.90
2018-08-06T09:52:36.447Z,99.90
2018-08-06T09:55:14.038Z,99.90
2018-08-06T09:57:50.815Z,99.90
2018-08-06T10:00:32.005Z,99.90
2018-08-06T10:03:08.174Z,99.90
2018-08-06T10:05:44.600Z,99.90
2018-08-06T10:08:20.513Z,99.90
2018-08-06T10:10:56.658Z,99.90
2018-08-06T10:13:32.704Z,99.90
2018-08-06T10:16:08.888Z,99.90
2018-08-06T10:18:44.735Z,99.90
2018-08-06T10:21:20.788Z,99.90
2018-08-06T10:26:32.828Z,99.90
2018-08-06T10:29:08.889Z,99.90
2018-08-06T10:31:44.857Z,99.90
2018-08-06T10:34:20.907Z,99.90
2018-08-06T10:36:57.008Z,99.90
2018-08-06T10:39:33.122Z,99.90
2018-08-06T10:42:09.222Z,99.90
2018-08-06T10:47:20.843Z,99.90
2018-08-06T10:49:56.883Z,99.90
2018-08-06T10:52:33.061Z,99.90
2018-08-06T10:55:09.921Z,99.90
2018-08-06T10:57:46.513Z,99.90
2018-08-06T11:00:23.555Z,99.90
2018-08-06T11:02:59.691Z,99.90
2018-08-06T11:05:35.622Z,99.90
2018-08-06T11:08:11.651Z,99.90
2018-08-06T11:10:47.782Z,99.90
2018-08-06T11:13:23.921Z,99.90
2018-08-06T11:16:00.124Z,99.90
2018-08-06T11:18:36.433Z,99.90
2018-08-06T11:21:12.384Z,99.90
2018-08-06T11:23:48.310Z,99.90
2018-08-06T11:26:24.529Z,99.90
2018-08-06T11:29:00.530Z,99.90
2018-08-06T11:31:36.364Z,99.90
2018-08-06T11:34:12.283Z,99.90
2018-08-06T11:36:48.264Z,99.90
2018-08-06T11:39:24.088Z,99.90
2018-08-06T11:42:00.196Z,99.90
2018-08-06T11:44:36.241Z,99.90
2018-08-06T11:47:12.303Z,99.90
2018-08-06T11:49:48.493Z,99.90
2018-08-06T11:52:24.441Z,99.90
2018-08-06T11:55:00.431Z,99.90
2018-08-06T11:57:36.551Z,99.90
2018-08-06T12:00:18.131Z,99.90
2018-08-06T12:02:54.321Z,99.90
2018-08-06T12:05:30.278Z,99.90
2018-08-06T12:08:06.496Z,99.90
2018-08-06T12:10:42.671Z,99.90
2018-08-06T12:13:18.639Z,99.90
2018-08-06T12:15:54.701Z,99.90
2018-08-06T12:18:30.838Z,99.90
2018-08-06T12:21:07.274Z,99.90
2018-08-06T12:23:43.299Z,99.90
2018-08-06T12:26:19.524Z,99.90
2018-08-06T12:31:30.743Z,99.90
2018-08-06T12:34:06.671Z,99.90
2018-08-06T12:36:42.851Z,99.90
2018-08-06T12:39:19.019Z,99.90
2018-08-06T12:41:54.971Z,99.90
2018-08-06T12:44:30.902Z,99.90
2018-08-06T12:47:07.212Z,99.90
2018-08-06T12:49:43.220Z,99.90
2018-08-06T12:52:19.331Z,99.90
2018-08-06T12:54:55.321Z,99.90
2018-08-06T12:57:31.456Z,99.90
2018-08-06T13:00:14.200Z,99.90
2018-08-06T13:02:50.994Z,99.90
2018-08-06T13:05:27.060Z,99.90
2018-08-06T13:08:03.010Z,99.90
2018-08-06T13:10:39.131Z,99.90
2018-08-06T13:13:15.130Z,99.90
2018-08-06T13:15:51.082Z,99.90
2018-08-06T13:18:27.272Z,99.90
2018-08-06T13:21:03.204Z,99.90
2018-08-06T13:23:39.163Z,99.90
2018-08-06T13:26:15.207Z,99.90
2018-08-06T13:28:51.180Z,99.90
2018-08-06T13:31:27.351Z,99.90
2018-08-06T13:34:03.266Z,99.90
2018-08-06T13:36:39.270Z,99.90
2018-08-06T13:39:15.391Z,99.90
2018-08-06T13:41:51.394Z,99.90
2018-08-06T13:44:27.306Z,99.90
2018-08-06T13:47:03.380Z,99.90
2018-08-06T13:49:39.400Z,99.90
2018-08-06T13:52:15.298Z,99.90
2018-08-06T13:54:51.360Z,99.90
2018-08-06T13:57:27.359Z,99.90
2018-08-06T14:00:03.605Z,99.90
2018-08-06T14:02:39.611Z,99.90
2018-08-06T14:05:16.331Z,99.90
2018-08-06T14:07:52.352Z,99.90
2018-08-06T14:10:28.501Z,99.90
2018-08-06T14:13:04.601Z,99.90
2018-08-06T14:15:40.533Z,99.90
2018-08-06T14:18:16.532Z,99.90
2018-08-06T14:20:52.635Z,99.90
2018-08-06T14:23:28.581Z,99.90
2018-08-06T14:26:04.921Z,99.90
2018-08-06T14:28:40.883Z,99.90
2018-08-06T14:31:16.821Z,99.90
2018-08-06T14:33:52.842Z,99.90
2018-08-06T14:36:29.227Z,99.90
2018-08-06T14:39:08.544Z,99.90
2018-08-06T14:41:45.364Z,99.90
2018-08-06T14:44:21.716Z,99.90
2018-08-06T14:46:58.023Z,99.90
2018-08-06T14:49:34.402Z,99.90
2018-08-06T14:52:10.893Z,99.90
2018-08-06T14:54:47.015Z,99.90
2018-08-06T14:57:23.127Z,99.90
2018-08-06T14:59:58.980Z,99.90
2018-08-06T15:02:35.195Z,99.90
2018-08-06T15:05:11.484Z,99.90
2018-08-06T15:07:48.036Z,99.90
2018-08-06T15:10:23.972Z,99.90
2018-08-06T15:13:00.052Z,99.90
2018-08-06T15:15:36.149Z,99.90
2018-08-06T15:18:12.175Z,99.90
2018-08-06T15:20:48.293Z,99.90
2018-08-06T15:23:24.332Z,99.90
2018-08-06T15:26:00.264Z,99.90
2018-08-06T15:28:36.370Z,99.90
2018-08-06T15:31:12.221Z,99.90
2018-08-06T15:33:48.421Z,99.90
2018-08-06T15:36:24.432Z,99.90
2018-08-06T15:39:00.231Z,99.90
2018-08-06T15:41:36.311Z,99.90
2018-08-06T15:44:12.451Z,99.90
2018-08-06T15:46:48.309Z,99.90
2018-08-06T15:49:24.444Z,99.90
2018-08-06T15:52:00.561Z,99.90
2018-08-06T15:54:36.362Z,99.90
2018-08-06T15:57:12.538Z,99.90
2018-08-06T15:59:48.461Z,99.90
2018-08-06T16:02:24.601Z,99.90
2018-08-06T16:05:00.603Z,99.90
2018-08-06T16:07:36.651Z,99.90
2018-08-06T16:10:13.174Z,99.90
2018-08-06T16:12:49.062Z,99.90
2018-08-06T16:15:25.159Z,99.90
2018-08-06T16:18:01.044Z,99.90
2018-08-06T16:20:37.101Z,99.90
2018-08-06T16:23:12.941Z,99.90
2018-08-06T16:25:49.015Z,99.90
2018-08-06T16:31:00.502Z,99.90
2018-08-06T16:33:36.521Z,99.90
2018-08-06T16:36:12.339Z,99.90
2018-08-06T16:38:48.663Z,99.90
2018-08-06T16:41:24.474Z,99.90
2018-08-06T16:44:00.462Z,99.90
2018-08-06T16:46:36.383Z,99.90
2018-08-06T16:49:12.663Z,99.90
2018-08-06T16:51:49.031Z,99.90
2018-08-06T16:54:25.127Z,99.90
2018-08-06T16:57:01.041Z,99.90
2018-08-06T16:59:37.025Z,99.90
2018-08-06T17:02:13.273Z,99.90
2018-08-06T17:04:49.195Z,99.90
2018-08-06T17:07:25.200Z,99.90
2018-08-06T17:10:01.153Z,99.90
2018-08-06T17:12:37.478Z,99.90
2018-08-06T17:15:14.880Z,99.90
2018-08-06T17:17:52.101Z,99.90
2018-08-06T17:20:28.036Z,99.90
2018-08-06T17:23:04.041Z,99.90
2018-08-06T17:25:40.031Z,99.90
2018-08-06T17:28:16.111Z,99.90
2018-08-06T17:30:52.081Z,99.90
2018-08-06T17:33:28.074Z,99.90
2018-08-06T17:36:03.924Z,99.90
2018-08-06T17:38:40.115Z,99.90
2018-08-06T17:41:16.210Z,99.90
2018-08-06T17:43:52.363Z,99.90
2018-08-06T17:46:28.495Z,99.90
2018-08-06T17:49:05.040Z,99.90
2018-08-06T17:51:41.017Z,99.90
2018-08-06T17:54:16.891Z,99.90
2018-08-06T17:56:53.004Z,99.90
2018-08-06T17:59:29.070Z,99.90
2018-08-06T18:02:05.190Z,99.90
2018-08-06T18:04:41.021Z,99.90
2018-08-06T18:07:16.974Z,99.90
2018-08-06T18:09:52.832Z,99.90
2018-08-06T18:12:28.766Z,99.90
2018-08-06T18:15:05.334Z,99.90
2018-08-06T18:17:41.100Z,99.90
2018-08-06T18:20:19.175Z,99.90
2018-08-06T18:22:55.413Z,99.90
2018-08-06T18:25:31.463Z,99.90
2018-08-06T18:28:07.250Z,99.90
2018-08-06T18:30:43.287Z,99.90
2018-08-06T18:33:19.088Z,99.90
2018-08-06T18:35:54.973Z,99.90
2018-08-06T18:38:31.143Z,99.90
2018-08-06T18:41:07.174Z,99.90
2018-08-06T18:43:43.461Z,99.90
2018-08-06T18:46:19.562Z,99.90
2018-08-06T18:48:55.538Z,99.90
2018-08-06T18:51:31.579Z,99.90
2018-08-06T18:54:08.119Z,99.90
2018-08-06T18:56:44.194Z,99.90
2018-08-06T18:59:20.114Z,99.90
2018-08-06T19:01:55.984Z,99.90
2018-08-06T19:04:31.884Z,99.90
2018-08-06T19:07:08.098Z,99.90
2018-08-06T19:09:44.070Z,99.90
2018-08-06T19:12:25.480Z,99.90
2018-08-06T19:15:01.483Z,99.90
2018-08-06T19:17:41.593Z,99.90
2018-08-06T19:20:17.710Z,99.90
2018-08-06T19:22:53.543Z,99.90
2018-08-06T19:25:31.026Z,99.90
2018-08-06T19:28:07.014Z,99.90
2018-08-06T19:30:48.091Z,99.90
2018-08-06T19:33:23.992Z,99.90
2018-08-06T19:36:00.071Z,99.90
2018-08-06T19:38:35.851Z,99.90
2018-08-06T19:41:11.803Z,99.90
2018-08-06T19:43:47.873Z,99.90
2018-08-06T19:46:23.785Z,99.90
2018-08-06T19:48:59.992Z,99.90
2018-08-06T19:51:36.158Z,99.90
2018-08-06T19:54:12.126Z,99.90
2018-08-06T19:56:48.334Z,99.90
2018-08-06T19:59:24.521Z,99.90
2018-08-06T20:02:00.680Z,99.90
2018-08-06T20:04:36.781Z,99.90
2018-08-06T20:07:13.031Z,99.90
2018-08-06T20:09:49.050Z,99.90
2018-08-06T20:12:25.254Z,99.90
2018-08-06T20:17:36.987Z,99.90
2018-08-06T20:20:13.083Z,99.90
2018-08-06T20:22:49.306Z,99.90
2018-08-06T20:25:25.309Z,99.90
2018-08-06T20:28:01.182Z,99.90
2018-08-06T20:30:37.197Z,99.90
2018-08-06T20:33:12.990Z,99.90
2018-08-06T20:35:49.020Z,99.90
2018-08-06T20:38:25.082Z,99.90
2018-08-06T20:41:01.130Z,99.90
2018-08-06T20:43:36.942Z,99.90
2018-08-06T20:46:12.962Z,99.90
2018-08-06T20:48:49.032Z,99.90
2018-08-06T20:51:25.280Z,99.90
2018-08-06T20:54:01.121Z,99.90
2018-08-06T20:56:37.321Z,99.90
2018-08-06T20:59:13.311Z,99.90
2018-08-06T21:01:49.300Z,99.90
2018-08-06T21:04:25.411Z,99.90
2018-08-06T21:07:01.401Z,99.90
2018-08-06T21:09:37.777Z,99.90
2018-08-06T21:12:13.968Z,99.90
2018-08-06T21:14:49.901Z,99.90
2018-08-06T21:17:25.961Z,99.90
2018-08-06T21:20:02.092Z,99.90
2018-08-06T21:22:38.270Z,99.90
2018-08-06T21:25:14.701Z,99.90
2018-08-06T21:27:50.700Z,99.90
2018-08-06T21:30:26.701Z,99.90
2018-08-06T21:33:02.630Z,99.90
2018-08-06T21:35:38.693Z,99.90
2018-08-06T21:38:14.917Z,99.90
2018-08-06T21:40:50.891Z,99.90
2018-08-06T21:43:26.921Z,99.90
2018-08-06T21:46:02.940Z,99.90
2018-08-06T21:48:38.900Z,99.90
2018-08-06T21:51:14.916Z,99.90
2018-08-06T21:53:50.921Z,99.90
2018-08-06T21:56:26.943Z,99.90
2018-08-06T21:59:02.836Z,99.90
2018-08-06T22:01:39.082Z,99.90
2018-08-06T22:04:15.239Z,99.90
2018-08-06T22:06:51.271Z,99.90
2018-08-06T22:09:27.163Z,99.90
2018-08-06T22:12:03.104Z,99.90
2018-08-06T22:14:39.222Z,99.90
2018-08-06T22:17:15.151Z,99.90
2018-08-06T22:19:51.061Z,99.90
2018-08-06T22:22:27.042Z,99.90
2018-08-06T22:25:03.122Z,99.90
2018-08-06T22:27:39.245Z,99.90
2018-08-06T22:30:15.241Z,99.90
2018-08-06T22:32:51.432Z,99.90
2018-08-06T22:35:27.742Z,99.90
2018-08-06T22:38:03.871Z,99.90
2018-08-06T22:40:40.052Z,99.90
2018-08-06T22:43:16.113Z,99.90
2018-08-06T22:45:52.162Z,99.90
2018-08-06T22:48:28.299Z,99.90
2018-08-06T22:51:04.614Z,99.90
2018-08-06T22:53:40.636Z,99.90
2018-08-06T22:56:16.542Z,99.90
2018-08-06T22:58:52.615Z,99.90
2018-08-06T23:01:28.762Z,99.90
2018-08-06T23:04:05.395Z,99.90
2018-08-06T23:06:41.572Z,99.90
2018-08-06T23:09:17.977Z,99.90
2018-08-06T23:11:53.876Z,99.90
2018-08-06T23:14:30.181Z,99.90
2018-08-06T23:17:06.002Z,99.90
2018-08-06T23:19:42.031Z,99.90
2018-08-06T23:22:18.124Z,99.90
2018-08-06T23:24:53.981Z,99.90
2018-08-06T23:27:30.363Z,99.90
2018-08-06T23:30:09.021Z,99.90
2018-08-06T23:32:44.924Z,99.90
2018-08-06T23:35:21.062Z,99.90
2018-08-06T23:37:57.187Z,99.90
2018-08-06T23:40:33.402Z,99.90
2018-08-06T23:43:09.475Z,99.90
2018-08-06T23:45:45.752Z,99.90
2018-08-06T23:48:22.083Z,99.90
2018-08-06T23:50:58.154Z,99.90
2018-08-06T23:53:34.182Z,99.90
2018-08-06T23:56:10.110Z,99.90
2018-08-06T23:58:46.298Z,99.90
